Time;durP1;ratioP1;P1;durP2;ratioP2;P2;SDS_P1;SDS_P2;PMS_P1;PMS_P2;Temp;Humidity;BMP_temperature;BMP_pressure;BME280_temperature;BME280_humidity;BME280_pressure;Samples;Min_cycle;Max_cycle;Signal;HPM_P1;HPM_P2
2021/10/26 00:02:07;;;;;;;5.78;4.70;;;8.20;89.50;;;;;;5016037;28;20022;-87
2021/10/26 00:04:32;;;;;;;6.70;4.50;;;8.30;89.60;;;;;;4998671;28;20030;-87
2021/10/26 00:06:58;;;;;;;5.65;4.25;;;8.20;89.60;;;;;;4999065;28;20528;-89
2021/10/26 00:09:23;;;;;;;8.38;4.43;;;8.30;89.60;;;;;;4998988;28;20022;-88
2021/10/26 00:11:49;;;;;;;7.82;4.80;;;8.30;89.60;;;;;;4998084;28;20503;-87
2021/10/26 00:14:15;;;;;;;5.65;4.10;;;8.30;89.60;;;;;;4978812;28;20030;-89
2021/10/26 00:16:41;;;;;;;6.07;4.30;;;8.40;89.60;;;;;;5008191;28;20032;-87
2021/10/26 00:19:06;;;;;;;5.50;4.00;;;8.40;89.60;;;;;;4998594;28;20105;-88
2021/10/26 00:21:32;;;;;;;5.68;4.35;;;8.40;89.70;;;;;;4998395;28;20040;-88
2021/10/26 00:23:58;;;;;;;8.45;4.25;;;8.40;89.70;;;;;;4998170;28;20475;-88
2021/10/26 00:26:23;;;;;;;4.95;3.88;;;8.50;89.80;;;;;;4997578;28;20037;-87
2021/10/26 00:28:49;;;;;;;5.32;4.05;;;8.50;89.90;;;;;;4997978;28;20388;-87
2021/10/26 00:31:15;;;;;;;5.53;3.78;;;8.50;90.00;;;;;;4997675;28;20025;-87
2021/10/26 00:33:41;;;;;;;7.95;4.95;;;8.60;90.00;;;;;;4985814;28;20030;-87
2021/10/26 00:36:06;;;;;;;6.75;4.50;;;8.60;90.00;;;;;;4997886;28;20376;-87
2021/10/26 00:38:32;;;;;;;6.78;4.45;;;8.60;90.00;;;;;;4997564;28;20033;-88
2021/10/26 00:40:59;;;;;;;7.30;4.20;;;8.70;90.00;;;;;;4997140;28;20045;-88
2021/10/26 00:43:25;;;;;;;8.32;4.28;;;8.70;90.00;;;;;;4997119;28;20036;-87
2021/10/26 00:45:51;;;;;;;7.47;4.55;;;8.70;90.00;;;;;;4993980;28;20022;-87
2021/10/26 00:48:17;;;;;;;5.45;4.35;;;8.70;89.90;;;;;;4977837;28;20094;-87
2021/10/26 00:50:42;;;;;;;8.27;4.50;;;8.80;90.00;;;;;;4996523;28;20464;-88
2021/10/26 00:53:08;;;;;;;7.07;4.40;;;8.80;90.00;;;;;;4997030;28;20030;-88
2021/10/26 00:55:34;;;;;;;6.30;4.00;;;8.80;90.00;;;;;;4996240;28;20394;-88
2021/10/26 00:58:00;;;;;;;6.70;4.35;;;8.70;90.00;;;;;;4993841;28;20109;-87
2021/10/26 01:00:26;;;;;;;6.47;4.38;;;8.80;90.00;;;;;;5013918;28;20563;-86
2021/10/26 01:02:52;;;;;;;6.20;4.35;;;8.70;90.00;;;;;;5015857;28;20447;-87
2021/10/26 01:05:18;;;;;;;9.40;4.72;;;8.70;90.00;;;;;;4997039;28;20033;-88
2021/10/26 01:07:44;;;;;;;6.80;4.20;;;8.70;90.00;;;;;;4992842;28;20022;-87
2021/10/26 01:10:10;;;;;;;6.68;4.15;;;8.70;90.00;;;;;;4996307;28;20088;-88
2021/10/26 01:12:37;;;;;;;6.78;4.70;;;8.70;90.10;;;;;;5013988;28;20044;-89
2021/10/26 01:15:05;;;;;;;8.23;4.60;;;8.70;90.10;;;;;;4996615;28;20030;-86
2021/10/26 01:17:30;;;;;;;8.68;4.88;;;8.60;90.10;;;;;;4997068;28;20030;-86
2021/10/26 01:19:57;;;;;;;7.13;4.55;;;8.60;90.10;;;;;;4996554;28;20029;-87
2021/10/26 01:22:29;;;;;;;6.80;4.68;;;8.60;90.10;;;;;;4996460;28;20036;-88
2021/10/26 01:24:55;;;;;;;7.05;5.00;;;8.60;90.20;;;;;;4996469;28;20587;-88
2021/10/26 01:27:22;;;;;;;8.20;4.75;;;8.50;90.20;;;;;;5014592;28;20025;-88
2021/10/26 01:29:48;;;;;;;9.20;5.28;;;8.50;90.20;;;;;;4997000;28;20030;-88
2021/10/26 01:32:15;;;;;;;5.38;4.28;;;8.50;90.30;;;;;;4997039;28;20030;-88
2021/10/26 01:34:41;;;;;;;8.13;4.70;;;8.50;90.40;;;;;;4996772;28;20038;-87
2021/10/26 01:37:09;;;;;;;9.63;4.95;;;8.50;90.40;;;;;;5014334;28;20139;-87
2021/10/26 01:39:35;;;;;;;6.57;4.60;;;8.50;90.40;;;;;;4996105;28;20033;-87
2021/10/26 01:42:03;;;;;;;7.18;4.95;;;8.50;90.50;;;;;;4996273;28;20038;-87
2021/10/26 01:44:28;;;;;;;7.00;4.80;;;8.60;90.50;;;;;;4996374;28;20055;-88
2021/10/26 01:46:54;;;;;;;7.07;5.03;;;8.60;90.50;;;;;;4997027;28;20068;-88
2021/10/26 01:49:22;;;;;;;7.20;5.10;;;8.60;90.60;;;;;;5013676;28;20033;-87
2021/10/26 01:51:49;;;;;;;10.65;5.35;;;8.70;90.60;;;;;;4995937;28;20033;-88
2021/10/26 01:54:15;;;;;;;9.52;5.40;;;8.70;90.60;;;;;;4976777;28;20030;-88
2021/10/26 01:56:42;;;;;;;11.15;6.25;;;8.70;90.60;;;;;;4990868;28;20037;-89
2021/10/26 01:59:08;;;;;;;6.85;4.80;;;8.70;90.60;;;;;;4997370;28;20028;-88
2021/10/26 02:01:34;;;;;;;6.93;5.30;;;8.80;90.60;;;;;;4995817;28;20029;-87
2021/10/26 02:03:59;;;;;;;6.55;5.28;;;8.80;90.70;;;;;;4996022;28;20042;-88
2021/10/26 02:06:25;;;;;;;8.63;5.20;;;8.80;90.70;;;;;;5013784;28;20424;-88
2021/10/26 02:08:50;;;;;;;7.88;5.35;;;8.80;90.70;;;;;;4995990;28;20398;-88
2021/10/26 02:11:17;;;;;;;7.38;5.10;;;8.80;90.80;;;;;;4996241;28;20102;-87
2021/10/26 02:13:42;;;;;;;6.65;5.40;;;8.80;91.00;;;;;;4995774;28;20026;-88
2021/10/26 02:16:08;;;;;;;10.15;5.90;;;8.90;90.80;;;;;;4996338;28;20048;-88
2021/10/26 02:18:34;;;;;;;6.88;5.38;;;8.90;90.80;;;;;;4995720;28;20025;-86
2021/10/26 02:21:00;;;;;;;9.00;5.20;;;8.90;91.00;;;;;;4996365;28;20503;-88
2021/10/26 02:23:26;;;;;;;7.38;5.32;;;8.90;90.90;;;;;;4995433;28;20128;-87
2021/10/26 02:25:51;;;;;;;9.77;5.22;;;8.90;91.00;;;;;;4996200;28;20025;-88
2021/10/26 02:28:17;;;;;;;6.03;5.00;;;9.00;91.00;;;;;;4996437;28;20057;-88
2021/10/26 02:30:44;;;;;;;7.55;5.18;;;9.00;91.00;;;;;;4994101;28;20341;-87
2021/10/26 02:33:10;;;;;;;10.75;5.72;;;9.00;91.00;;;;;;5062221;23;20473;-67
2021/10/26 02:35:36;;;;;;;7.82;5.15;;;9.10;91.10;;;;;;4975404;28;20600;-68
2021/10/26 02:38:03;;;;;;;8.77;5.55;;;9.10;91.10;;;;;;4996957;28;20022;-67
2021/10/26 02:40:28;;;;;;;8.40;5.82;;;9.10;91.10;;;;;;4994758;28;20018;-67
2021/10/26 02:42:54;;;;;;;7.18;4.95;;;9.20;91.10;;;;;;5010464;28;20804;-67
2021/10/26 02:45:20;;;;;;;10.82;5.45;;;9.20;91.10;;;;;;5011232;28;20042;-68
2021/10/26 02:47:46;;;;;;;7.80;5.18;;;9.20;91.10;;;;;;5010699;28;20057;-68
2021/10/26 02:50:12;;;;;;;8.68;5.72;;;9.20;91.10;;;;;;5011409;28;20030;-68
2021/10/26 02:52:38;;;;;;;7.63;5.22;;;9.20;91.10;;;;;;4992671;28;20038;-67
2021/10/26 02:55:05;;;;;;;8.57;5.50;;;9.20;91.10;;;;;;5010673;28;20052;-69
2021/10/26 02:57:32;;;;;;;10.90;6.18;;;9.20;91.20;;;;;;4994309;28;20030;-67
2021/10/26 02:59:57;;;;;;;9.65;6.13;;;9.20;91.20;;;;;;5005728;28;20366;-67
2021/10/26 03:02:23;;;;;;;10.88;6.50;;;9.20;91.20;;;;;;5009468;28;20081;-67
2021/10/26 03:04:49;;;;;;;8.85;5.82;;;9.20;91.20;;;;;;5001891;28;20037;-68
2021/10/26 03:07:15;;;;;;;8.25;5.30;;;9.20;91.20;;;;;;5007628;28;20026;-66
2021/10/26 03:09:41;;;;;;;8.30;5.53;;;9.20;91.30;;;;;;5014179;28;20041;-66
2021/10/26 03:12:07;;;;;;;7.70;5.72;;;9.10;91.40;;;;;;4997349;28;20021;-67
2021/10/26 03:14:33;;;;;;;9.40;5.85;;;9.20;91.50;;;;;;5013779;28;20038;-67
2021/10/26 03:16:58;;;;;;;8.95;5.95;;;9.20;91.50;;;;;;4996816;28;20040;-67
2021/10/26 03:19:24;;;;;;;9.48;6.05;;;9.20;91.60;;;;;;4996994;28;20492;-67
2021/10/26 03:21:49;;;;;;;9.93;5.97;;;9.20;91.60;;;;;;5014903;28;20157;-67
2021/10/26 03:24:15;;;;;;;9.68;5.80;;;9.20;91.90;;;;;;5013442;28;20052;-67
2021/10/26 03:26:41;;;;;;;10.45;6.30;;;9.30;91.70;;;;;;5014225;28;20053;-67
2021/10/26 03:29:06;;;;;;;12.82;7.00;;;9.20;91.70;;;;;;5014867;28;20609;-68
2021/10/26 03:31:32;;;;;;;10.32;6.20;;;9.20;91.80;;;;;;5013035;28;20026;-67
2021/10/26 03:33:57;;;;;;;10.15;6.30;;;9.20;91.90;;;;;;4995670;28;20030;-67
2021/10/26 03:36:23;;;;;;;11.73;6.28;;;9.20;91.90;;;;;;5013867;28;20397;-66
2021/10/26 03:38:50;;;;;;;11.20;6.22;;;9.20;92.00;;;;;;5014454;28;20037;-67
2021/10/26 03:41:16;;;;;;;10.65;6.50;;;9.30;92.00;;;;;;5014146;28;20026;-67
2021/10/26 03:43:42;;;;;;;10.15;6.18;;;9.30;92.10;;;;;;5013766;28;20130;-68
2021/10/26 03:46:07;;;;;;;11.23;7.35;;;9.30;92.10;;;;;;5012680;28;20478;-67
2021/10/26 03:48:33;;;;;;;8.98;6.45;;;9.30;92.20;;;;;;4995977;28;20080;-67
2021/10/26 03:50:59;;;;;;;8.85;6.65;;;9.30;92.20;;;;;;5014078;28;20026;-67
2021/10/26 03:53:24;;;;;;;13.98;7.47;;;9.30;92.20;;;;;;5002963;28;20451;-66
2021/10/26 03:55:50;;;;;;;10.20;6.85;;;9.30;92.30;;;;;;5013414;28;20032;-68
2021/10/26 03:58:15;;;;;;;9.73;6.63;;;9.30;92.30;;;;;;4988363;28;20030;-67
2021/10/26 04:00:41;;;;;;;9.10;6.50;;;9.30;92.40;;;;;;4998429;28;20058;-67
2021/10/26 04:03:07;;;;;;;12.82;6.22;;;9.30;92.40;;;;;;5010617;28;20034;-67
2021/10/26 04:10:56;;;;;;;9.38;5.93;;;9.30;92.70;;;;;;5013970;28;20041;-67
2021/10/26 04:13:23;;;;;;;9.77;6.30;;;9.30;92.70;;;;;;5012228;28;20056;-68
2021/10/26 04:15:49;;;;;;;10.23;7.05;;;9.30;92.70;;;;;;4995534;28;20062;-67
2021/10/26 04:18:15;;;;;;;11.95;7.43;;;9.30;92.70;;;;;;5013414;28;20028;-68
2021/10/26 04:20:42;;;;;;;13.05;7.55;;;9.30;92.80;;;;;;4995195;28;20125;-67
2021/10/26 04:23:08;;;;;;;9.63;6.38;;;9.30;92.80;;;;;;5011974;28;20105;-66
2021/10/26 04:25:33;;;;;;;12.32;7.35;;;9.30;92.90;;;;;;5012582;28;20537;-66
2021/10/26 04:28:00;;;;;;;10.77;7.10;;;9.30;92.90;;;;;;5013277;28;20022;-66
2021/10/26 04:30:26;;;;;;;10.57;6.68;;;9.30;93.00;;;;;;5012716;28;20046;-67
2021/10/26 04:32:51;;;;;;;11.07;7.28;;;9.30;93.00;;;;;;5009095;28;20040;-70
2021/10/26 04:35:17;;;;;;;15.38;7.88;;;9.30;93.00;;;;;;4995175;28;20038;-70
2021/10/26 04:37:43;;;;;;;10.35;7.50;;;9.30;93.00;;;;;;5011524;28;20497;-70
2021/10/26 04:40:09;;;;;;;11.73;7.90;;;9.30;92.90;;;;;;4994491;28;20049;-65
2021/10/26 04:42:35;;;;;;;12.95;7.50;;;9.30;93.00;;;;;;5011490;28;20033;-65
2021/10/26 04:45:01;;;;;;;12.93;8.43;;;9.30;93.10;;;;;;5013301;28;20026;-66
2021/10/26 04:47:27;;;;;;;13.23;8.23;;;9.30;93.10;;;;;;5012360;28;20022;-66
2021/10/26 04:49:54;;;;;;;13.60;7.85;;;9.40;93.20;;;;;;5012525;28;20061;-66
2021/10/26 04:52:20;;;;;;;15.82;7.82;;;9.40;93.20;;;;;;5012565;28;20394;-66
2021/10/26 04:54:45;;;;;;;12.50;7.80;;;9.30;93.20;;;;;;5010236;28;20030;-66
2021/10/26 04:57:11;;;;;;;14.75;8.18;;;9.30;93.20;;;;;;5012506;28;20486;-65
2021/10/26 04:59:37;;;;;;;14.27;8.25;;;9.30;93.20;;;;;;5001459;28;20104;-66
2021/10/26 05:02:03;;;;;;;13.38;8.38;;;9.30;93.20;;;;;;5006152;28;20033;-66
2021/10/26 05:04:29;;;;;;;12.15;8.52;;;9.30;93.30;;;;;;4991363;28;20030;-66
2021/10/26 05:06:55;;;;;;;12.60;8.50;;;9.30;93.30;;;;;;4992835;28;20023;-65
2021/10/26 05:09:21;;;;;;;11.63;7.93;;;9.30;93.40;;;;;;5000557;28;20026;-65
2021/10/26 05:11:47;;;;;;;13.10;7.68;;;9.30;93.40;;;;;;4994692;28;20048;-66
2021/10/26 05:14:13;;;;;;;14.25;8.50;;;9.30;93.40;;;;;;5011350;28;20145;-65
2021/10/26 05:16:38;;;;;;;15.55;8.73;;;9.30;93.50;;;;;;5011872;28;20053;-65
2021/10/26 05:19:06;;;;;;;17.30;8.68;;;9.20;93.50;;;;;;5012027;28;20032;-66
2021/10/26 05:21:33;;;;;;;15.73;8.68;;;9.20;93.50;;;;;;5011991;28;20130;-66
2021/10/26 05:23:59;;;;;;;11.70;7.55;;;9.20;93.50;;;;;;5010032;28;20025;-66
2021/10/26 05:26:25;;;;;;;13.85;8.60;;;9.20;93.60;;;;;;5010153;28;20445;-66
2021/10/26 05:28:51;;;;;;;14.45;8.60;;;9.20;93.60;;;;;;4987979;28;20022;-66
2021/10/26 05:31:17;;;;;;;13.20;8.05;;;9.20;93.70;;;;;;5012266;28;20033;-66
2021/10/26 05:33:43;;;;;;;11.05;7.78;;;9.20;93.70;;;;;;5002886;28;20029;-65
2021/10/26 05:36:08;;;;;;;14.70;8.55;;;9.20;93.70;;;;;;4986925;28;20037;-65
2021/10/26 05:38:35;;;;;;;14.05;8.57;;;9.20;93.80;;;;;;5004415;28;20536;-64
2021/10/26 05:41:02;;;;;;;12.68;8.40;;;9.20;93.80;;;;;;5012161;28;20026;-65
2021/10/26 05:43:27;;;;;;;15.82;8.63;;;9.20;93.90;;;;;;5010736;28;20129;-66
2021/10/26 05:45:53;;;;;;;14.18;9.30;;;9.20;93.90;;;;;;5011982;28;20120;-66
2021/10/26 05:48:20;;;;;;;14.60;9.35;;;9.20;93.90;;;;;;5011831;28;20029;-66
2021/10/26 05:50:46;;;;;;;13.35;8.32;;;9.20;93.90;;;;;;5011890;28;20467;-64
2021/10/26 05:53:12;;;;;;;16.45;9.02;;;9.20;94.00;;;;;;4993644;28;20114;-63
2021/10/26 05:55:38;;;;;;;16.92;9.52;;;9.20;94.00;;;;;;4993424;28;20036;-68
2021/10/26 05:58:04;;;;;;;15.25;9.38;;;9.20;94.00;;;;;;5012181;28;20021;-67
2021/10/26 06:00:31;;;;;;;16.90;9.25;;;9.20;94.00;;;;;;4993947;28;20030;-67
2021/10/26 06:02:57;;;;;;;16.88;9.32;;;9.30;94.10;;;;;;4997151;28;20042;-72
2021/10/26 06:05:23;;;;;;;13.48;9.25;;;9.30;94.10;;;;;;5006033;28;20044;-66
2021/10/26 06:07:49;;;;;;;15.95;9.43;;;9.30;94.10;;;;;;5001077;28;20023;-70
2021/10/26 06:10:16;;;;;;;16.73;10.48;;;9.30;94.10;;;;;;5009695;28;20093;-68
2021/10/26 06:12:51;;;;;;;17.02;10.05;;;9.30;94.10;;;;;;4973683;28;20019;-70
2021/10/26 06:15:17;;;;;;;15.88;9.70;;;9.30;94.20;;;;;;5008901;28;20037;-67
2021/10/26 06:17:42;;;;;;;14.50;9.52;;;9.30;94.20;;;;;;5000618;28;20117;-67
2021/10/26 06:20:10;;;;;;;16.65;9.35;;;9.30;94.30;;;;;;5011785;28;20038;-68
2021/10/26 06:22:36;;;;;;;20.60;11.75;;;9.30;94.30;;;;;;5009729;28;20038;-67
2021/10/26 06:25:03;;;;;;;23.70;11.15;;;9.40;94.40;;;;;;5010971;28;20022;-68
2021/10/26 06:27:29;;;;;;;18.45;11.82;;;9.40;94.40;;;;;;5008889;28;20021;-68
2021/10/26 06:29:55;;;;;;;29.35;15.00;;;9.40;94.40;;;;;;4982616;28;20018;-67
2021/10/26 06:32:21;;;;;;;17.08;11.32;;;9.50;94.50;;;;;;5008025;28;20022;-70
2021/10/26 06:34:46;;;;;;;17.90;11.40;;;9.50;94.50;;;;;;4999339;28;20042;-67
2021/10/26 06:37:12;;;;;;;17.23;9.95;;;9.50;94.50;;;;;;5003473;28;20576;-68
2021/10/26 06:39:38;;;;;;;17.98;10.02;;;9.60;94.50;;;;;;4998306;28;20030;-67
2021/10/26 06:42:04;;;;;;;17.55;10.23;;;9.60;94.50;;;;;;4994000;28;20497;-67
2021/10/26 06:44:30;;;;;;;16.50;10.60;;;9.60;94.60;;;;;;4994346;28;20478;-67
2021/10/26 06:46:55;;;;;;;15.13;10.07;;;9.60;94.60;;;;;;5006552;28;20026;-68
2021/10/26 06:49:21;;;;;;;16.38;9.70;;;9.70;94.60;;;;;;4992328;28;20026;-66
2021/10/26 06:51:47;;;;;;;17.20;10.77;;;9.70;94.60;;;;;;5011073;28;20052;-67
2021/10/26 06:54:12;;;;;;;17.98;10.15;;;9.70;94.60;;;;;;5008146;28;20022;-67
2021/10/26 06:56:38;;;;;;;17.05;10.35;;;9.80;94.60;;;;;;5003190;28;20088;-68
2021/10/26 06:59:03;;;;;;;19.75;10.15;;;9.80;94.60;;;;;;5005267;28;20030;-69
2021/10/26 07:01:29;;;;;;;17.63;10.60;;;9.80;94.60;;;;;;5010606;28;20026;-67
2021/10/26 07:03:55;;;;;;;17.63;11.18;;;9.80;94.60;;;;;;5009111;28;20097;-67
2021/10/26 07:06:20;;;;;;;17.02;10.75;;;9.80;94.60;;;;;;5002492;28;20026;-67
2021/10/26 07:08:46;;;;;;;18.52;10.93;;;9.90;94.60;;;;;;4992949;28;20105;-69
2021/10/26 07:11:11;;;;;;;20.27;11.70;;;9.90;94.60;;;;;;5010556;28;20036;-66
2021/10/26 07:13:39;;;;;;;22.65;14.98;;;9.90;94.60;;;;;;4992131;28;20030;-66
2021/10/26 07:16:06;;;;;;;31.50;17.95;;;9.90;94.70;;;;;;5010337;28;20034;-67
2021/10/26 07:18:32;;;;;;;22.52;12.25;;;10.00;94.70;;;;;;4992948;28;20022;-69
2021/10/26 07:20:58;;;;;;;27.58;15.52;;;10.00;94.70;;;;;;5010544;28;20026;-69
2021/10/26 07:23:24;;;;;;;19.95;12.85;;;10.10;94.80;;;;;;5009273;28;20109;-67
2021/10/26 07:25:50;;;;;;;23.48;14.20;;;10.10;94.80;;;;;;5010581;28;20045;-67
2021/10/26 07:28:16;;;;;;;21.38;11.88;;;10.20;94.80;;;;;;5010535;28;20061;-66
2021/10/26 07:30:44;;;;;;;19.13;11.80;;;10.30;94.80;;;;;;5010678;28;20217;-67
2021/10/26 07:33:18;;;;;;;23.08;12.02;;;10.30;94.80;;;;;;5006722;28;20076;-67
2021/10/26 07:35:45;;;;;;;18.58;11.80;;;10.40;94.80;;;;;;4992518;28;20025;-67
2021/10/26 07:38:13;;;;;;;24.85;13.55;;;10.40;94.70;;;;;;5004119;28;20050;-68
2021/10/26 07:40:39;;;;;;;20.63;13.75;;;10.40;94.70;;;;;;5010616;28;20018;-67
2021/10/26 07:43:05;;;;;;;21.65;14.20;;;10.40;94.80;;;;;;5009387;28;20029;-67
2021/10/26 07:45:31;;;;;;;20.08;14.02;;;10.50;94.80;;;;;;4996306;28;20037;-67
2021/10/26 07:47:57;;;;;;;16.00;10.48;;;10.40;94.70;;;;;;5011947;28;20040;-67
2021/10/26 07:50:22;;;;;;;15.55;9.77;;;10.50;94.80;;;;;;4996429;28;20470;-67
2021/10/26 07:52:48;;;;;;;13.15;8.77;;;10.50;94.80;;;;;;5013061;28;20109;-67
2021/10/26 07:55:15;;;;;;;13.20;8.95;;;10.60;94.80;;;;;;5013925;28;20018;-67
2021/10/26 07:57:40;;;;;;;12.38;7.57;;;10.70;95.00;;;;;;5013332;28;20030;-67
2021/10/26 08:00:08;;;;;;;12.27;7.63;;;10.90;95.10;;;;;;4989201;28;20085;-68
2021/10/26 08:02:33;;;;;;;12.38;7.60;;;11.00;95.20;;;;;;4984211;28;20057;-70
2021/10/26 08:04:59;;;;;;;11.93;7.55;;;11.10;95.00;;;;;;4993988;28;20058;-66
2021/10/26 08:07:26;;;;;;;13.35;7.90;;;11.10;94.90;;;;;;5004310;28;20028;-68
2021/10/26 08:09:56;;;;;;;15.93;8.10;;;11.20;94.80;;;;;;5013752;28;20028;-67
2021/10/26 08:12:23;;;;;;;11.85;6.82;;;11.30;94.70;;;;;;5013673;28;20026;-70
2021/10/26 08:14:50;;;;;;;10.95;7.20;;;11.40;94.80;;;;;;5012710;28;20032;-67
2021/10/26 08:17:16;;;;;;;13.40;7.35;;;11.50;94.90;;;;;;5013094;28;20038;-69
2021/10/26 08:19:44;;;;;;;12.93;6.90;;;11.60;94.80;;;;;;5013238;28;20033;-70
2021/10/26 08:22:16;;;;;;;12.98;7.25;;;11.70;94.90;;;;;;4995616;28;20037;-72
2021/10/26 08:24:43;;;;;;;11.53;6.93;;;11.80;94.70;;;;;;5012662;28;20417;-76
2021/10/26 08:27:13;;;;;;;7.85;6.25;;;11.90;94.80;;;;;;5013114;28;20017;-71
2021/10/26 08:29:49;;;;;;;10.95;7.35;;;12.00;94.80;;;;;;5013634;28;20045;-71
2021/10/26 08:37:56;;;;;;;12.40;6.75;;;12.00;94.20;;;;;;4986295;28;20113;-70
2021/10/26 08:40:24;;;;;;;13.13;7.20;;;12.00;94.20;;;;;;4975835;28;20048;-70
2021/10/26 08:42:50;;;;;;;10.43;6.95;;;12.00;94.00;;;;;;4992377;28;20026;-70
2021/10/26 08:45:20;;;;;;;11.68;6.95;;;11.90;94.00;;;;;;4992990;28;20030;-70
2021/10/26 08:47:46;;;;;;;8.02;6.45;;;11.90;94.20;;;;;;4993235;28;20023;-70
2021/10/26 08:50:13;;;;;;;9.20;6.45;;;11.80;94.10;;;;;;4993330;28;20092;-71
2021/10/26 08:52:38;;;;;;;12.90;7.90;;;11.80;94.10;;;;;;4974914;28;20643;-71
2021/10/26 08:55:07;;;;;;;10.07;6.25;;;11.80;94.10;;;;;;4992736;28;20164;-72
2021/10/26 08:57:34;;;;;;;9.80;5.97;;;11.70;94.10;;;;;;4986292;28;20038;-69
2021/10/26 09:00:07;;;;;;;10.00;5.55;;;11.70;94.20;;;;;;4998251;28;20018;-72
2021/10/26 09:02:38;;;;;;;8.23;5.38;;;11.70;94.40;;;;;;4990179;28;20438;-70
2021/10/26 09:05:08;;;;;;;7.45;5.10;;;11.70;94.20;;;;;;4994292;28;20027;-72
2021/10/26 09:07:36;;;;;;;6.40;4.47;;;11.80;94.20;;;;;;4974243;28;20455;-72
2021/10/26 09:10:09;;;;;;;10.43;5.32;;;11.80;94.20;;;;;;4992361;28;20034;-72
2021/10/26 09:17:58;;;;;;;8.50;4.78;;;11.90;94.10;;;;;;4979191;28;20049;-71
2021/10/26 09:20:28;;;;;;;9.63;4.57;;;12.00;94.10;;;;;;4992089;28;20030;-71
2021/10/26 09:22:55;;;;;;;10.05;4.60;;;12.10;94.10;;;;;;4991783;28;20072;-71
2021/10/26 09:25:32;;;;;;;8.80;4.60;;;12.10;94.10;;;;;;4992151;28;20475;-71
2021/10/26 09:28:13;;;;;;;9.63;4.80;;;12.20;94.10;;;;;;4990319;28;20121;-71
2021/10/26 09:30:40;;;;;;;5.40;4.20;;;12.30;94.00;;;;;;4992276;28;20076;-71
2021/10/26 09:33:08;;;;;;;7.25;4.35;;;12.40;94.10;;;;;;4988519;28;20034;-71
2021/10/26 09:35:35;;;;;;;8.27;4.45;;;12.50;94.00;;;;;;4990371;28;20368;-67
2021/10/26 09:38:00;;;;;;;7.30;4.13;;;12.50;93.80;;;;;;4991877;28;20040;-70
2021/10/26 09:40:43;;;;;;;6.03;4.00;;;12.50;93.70;;;;;;4974894;28;20023;-70
2021/10/26 09:43:11;;;;;;;6.70;3.67;;;12.60;93.80;;;;;;4989962;28;20026;-72
2021/10/26 09:45:38;;;;;;;7.43;4.18;;;12.60;93.60;;;;;;4992417;28;20043;-72
2021/10/26 09:48:20;;;;;;;7.80;4.30;;;12.70;93.60;;;;;;4964213;28;20023;-74
2021/10/26 09:50:46;;;;;;;8.48;4.38;;;12.70;93.60;;;;;;4986464;28;20031;-73
2021/10/26 09:53:16;;;;;;;8.18;4.10;;;12.80;93.70;;;;;;4990860;28;20125;-74
2021/10/26 09:55:48;;;;;;;7.75;3.22;;;12.80;93.70;;;;;;4992068;28;20390;-73
2021/10/26 09:58:21;;;;;;;4.03;1.75;;;12.90;93.60;;;;;;4991766;28;20041;-72
2021/10/26 10:00:50;;;;;;;5.82;1.90;;;13.00;93.50;;;;;;4975071;28;20030;-72
2021/10/26 10:03:19;;;;;;;5.95;1.70;;;13.00;93.30;;;;;;4987248;28;20029;-72
2021/10/26 10:05:54;;;;;;;3.90;1.80;;;13.10;93.10;;;;;;4979572;28;20042;-70
2021/10/26 10:08:24;;;;;;;4.85;1.70;;;13.20;93.10;;;;;;4973214;28;20122;-72
2021/10/26 10:11:13;;;;;;;6.57;1.55;;;13.20;92.90;;;;;;4991891;28;20055;-72
2021/10/26 10:13:43;;;;;;;4.68;1.90;;;13.30;92.90;;;;;;4990170;28;20038;-72
2021/10/26 10:16:17;;;;;;;4.38;2.42;;;13.30;92.90;;;;;;4991581;28;20100;-72
2021/10/26 10:18:44;;;;;;;5.28;2.08;;;13.40;92.80;;;;;;4990888;28;20022;-72
2021/10/26 10:21:13;;;;;;;3.67;1.95;;;13.50;92.60;;;;;;4987394;28;20486;-72
2021/10/26 10:23:44;;;;;;;3.25;1.80;;;13.60;92.60;;;;;;5004416;28;20062;-70
2021/10/26 10:26:15;;;;;;;5.50;1.80;;;13.70;92.50;;;;;;4990216;28;20359;-72
2021/10/26 10:28:44;;;;;;;2.53;1.30;;;13.80;92.30;;;;;;4989795;28;20026;-72
2021/10/26 10:31:15;;;;;;;5.28;1.75;;;13.80;92.20;;;;;;4972425;28;20019;-71
2021/10/26 10:33:45;;;;;;;10.10;6.90;;;13.90;92.00;;;;;;4958438;28;20033;-72
2021/10/26 10:36:12;;;;;;;4.75;2.40;;;13.80;91.90;;;;;;4982502;28;20030;-72
2021/10/26 10:38:38;;;;;;;4.38;1.98;;;13.70;91.80;;;;;;4992047;28;20026;-70
2021/10/26 10:41:27;;;;;;;8.20;2.53;;;13.70;91.70;;;;;;4991490;28;20030;-72
2021/10/26 10:43:58;;;;;;;3.80;1.48;;;13.60;91.70;;;;;;4983048;28;20080;-74
2021/10/26 10:46:43;;;;;;;6.63;2.30;;;13.60;91.80;;;;;;4989294;28;20026;-71
2021/10/26 10:49:24;;;;;;;2.17;1.42;;;13.60;91.80;;;;;;4991909;28;20530;-72
2021/10/26 10:51:54;;;;;;;6.85;2.20;;;13.50;91.70;;;;;;4986654;28;20023;-70
2021/10/26 10:54:38;;;;;;;3.35;1.30;;;13.50;91.70;;;;;;4975816;28;20022;-72
2021/10/26 10:57:18;;;;;;;4.97;1.33;;;13.40;91.60;;;;;;4991489;28;20598;-73
2021/10/26 10:59:45;;;;;;;3.50;1.75;;;13.30;91.70;;;;;;4991356;28;20026;-72
2021/10/26 11:02:35;;;;;;;3.88;1.70;;;13.30;91.70;;;;;;4991171;28;20475;-71
2021/10/26 11:05:04;;;;;;;3.22;1.58;;;13.30;91.70;;;;;;4988747;28;20026;-72
2021/10/26 11:07:42;;;;;;;4.95;1.42;;;13.30;91.90;;;;;;4976077;28;20514;-72
2021/10/26 11:10:13;;;;;;;3.72;1.52;;;13.40;91.90;;;;;;4991464;28;20069;-72
2021/10/26 11:12:40;;;;;;;6.63;1.52;;;13.50;91.90;;;;;;4989835;28;20069;-72
2021/10/26 11:15:10;;;;;;;4.90;1.58;;;13.60;91.90;;;;;;4990659;28;20030;-72
2021/10/26 11:17:36;;;;;;;5.95;1.88;;;13.80;91.80;;;;;;4991113;28;20023;-73
2021/10/26 11:20:11;;;;;;;2.70;1.55;;;13.90;91.70;;;;;;4986377;28;20022;-72
2021/10/26 11:22:49;;;;;;;3.85;1.58;;;14.10;91.40;;;;;;4989649;28;20027;-72
2021/10/26 11:25:28;;;;;;;3.83;1.63;;;14.30;91.20;;;;;;4987150;28;20030;-73
2021/10/26 11:27:55;;;;;;;2.72;1.38;;;14.40;90.90;;;;;;4983399;28;20069;-72
2021/10/26 11:30:27;;;;;;;4.15;1.30;;;14.40;90.80;;;;;;4988692;28;20150;-71
2021/10/26 11:33:12;;;;;;;1.30;1.20;;;14.40;90.70;;;;;;4991707;28;20066;-71
2021/10/26 11:35:49;;;;;;;2.95;0.93;;;14.40;90.60;;;;;;4979886;28;20537;-72
2021/10/26 11:38:18;;;;;;;2.92;1.25;;;14.40;90.50;;;;;;4980482;28;20495;-73
2021/10/26 11:40:56;;;;;;;2.83;1.45;;;14.40;90.50;;;;;;4966206;28;20030;-72
2021/10/26 11:43:23;;;;;;;4.60;1.55;;;14.40;90.40;;;;;;4983592;28;20056;-72
2021/10/26 11:45:57;;;;;;;1.77;1.40;;;14.50;90.30;;;;;;4987127;28;20023;-73
2021/10/26 11:48:49;;;;;;;3.25;1.50;;;14.40;90.20;;;;;;4976661;28;20073;-73
2021/10/26 11:51:34;;;;;;;2.97;1.38;;;14.40;90.10;;;;;;4994546;28;20759;-72
2021/10/26 11:54:03;;;;;;;3.60;1.58;;;14.30;90.10;;;;;;4982039;28;20072;-71
2021/10/26 11:56:43;;;;;;;2.97;1.67;;;14.30;90.30;;;;;;4982371;28;20033;-72
2021/10/26 11:59:12;;;;;;;4.07;1.95;;;14.30;90.20;;;;;;4990047;28;20026;-73
2021/10/26 12:01:45;;;;;;;4.07;1.90;;;14.20;90.20;;;;;;4982532;28;20030;-70
2021/10/26 12:04:35;;;;;;;4.07;1.73;;;14.20;90.20;;;;;;4967665;28;20106;-73
2021/10/26 12:07:02;;;;;;;4.35;1.50;;;14.10;90.20;;;;;;4992796;28;20026;-73
2021/10/26 12:09:32;;;;;;;2.30;1.67;;;14.10;90.10;;;;;;4991617;28;20027;-72
2021/10/26 12:12:03;;;;;;;4.78;1.88;;;14.10;90.20;;;;;;4992432;28;20080;-71
2021/10/26 12:14:35;;;;;;;4.90;1.75;;;14.10;90.20;;;;;;4984666;28;20026;-72
2021/10/26 12:17:22;;;;;;;1.80;1.67;;;14.10;90.30;;;;;;4969927;28;20083;-73
2021/10/26 12:19:48;;;;;;;5.47;1.92;;;14.00;90.20;;;;;;4984265;28;20082;-74
2021/10/26 12:22:25;;;;;;;2.88;1.90;;;14.00;90.20;;;;;;4976422;28;20430;-70
2021/10/26 12:25:16;;;;;;;3.95;2.40;;;14.00;90.30;;;;;;4992878;28;20030;-70
2021/10/26 12:28:08;;;;;;;4.25;2.35;;;14.00;90.30;;;;;;4991414;28;20030;-73
2021/10/26 12:30:36;;;;;;;2.90;2.15;;;14.00;90.40;;;;;;4987302;28;20026;-72
2021/10/26 12:33:03;;;;;;;5.88;2.45;;;14.10;90.50;;;;;;4988536;28;20042;-71
2021/10/26 12:35:42;;;;;;;17.60;11.55;;;14.40;90.50;;;;;;4971873;28;20019;-71
2021/10/26 12:38:35;;;;;;;5.05;2.85;;;14.60;90.60;;;;;;4986922;28;20391;-71
2021/10/26 12:41:07;;;;;;;7.05;2.92;;;14.70;90.50;;;;;;4984695;28;20022;-71
2021/10/26 12:43:34;;;;;;;3.55;2.70;;;14.70;90.30;;;;;;4978950;28;20433;-71
2021/10/26 12:46:21;;;;;;;5.43;2.75;;;14.70;90.40;;;;;;4990018;28;20026;-71
2021/10/26 12:48:47;;;;;;;4.10;2.55;;;14.70;90.40;;;;;;4981648;28;20740;-71
2021/10/26 12:51:22;;;;;;;6.43;2.85;;;14.60;90.40;;;;;;4970137;28;20022;-71
2021/10/26 12:53:48;;;;;;;3.13;1.80;;;14.60;90.40;;;;;;4969386;28;20045;-71
2021/10/26 12:56:28;;;;;;;4.60;1.88;;;14.50;90.20;;;;;;4983890;28;20542;-71
2021/10/26 12:59:08;;;;;;;6.20;1.80;;;14.50;90.20;;;;;;4970964;28;20376;-71
2021/10/26 13:01:42;;;;;;;3.08;1.75;;;14.40;90.30;;;;;;4988209;28;20030;-71
2021/10/26 13:04:19;;;;;;;4.35;2.20;;;14.40;90.30;;;;;;4981451;28;20026;-71
2021/10/26 13:07:00;;;;;;;9.77;5.35;;;14.40;90.20;;;;;;4983731;28;20058;-72
2021/10/26 13:10:00;;;;;;;29.50;14.35;;;14.40;90.20;;;;;;4989252;28;20018;-71
2021/10/26 13:12:39;;;;;;;5.20;2.63;;;14.30;90.10;;;;;;4988935;28;20030;-71